Terminal Aerodrome Forecast
Issued by NWS

Home | Current Version | Previous Version | Text Only | Print | Product List | Glossary On
Versions: 1 2 3 4 5 6 7 8 9 10 11 12 13 14 15
000
FTUS46 KOTX 272017 AAA
TAFCOE
TAF AMD
KCOE 272017Z 2720/2818 14004KT P6SM SCT070 BKN120
     FM272100 22011G16KT P6SM VCSH BKN080
     FM280300 17006KT P6SM SCT080 BKN120
     FM280700 14005KT P6SM FEW080 SCT150
     FM281400 19008KT P6SM VCFG FEW001 SCT120 BKN250
      AMD LTD TO CLD AND VIS=

USA.gov is the U.S. government's official web portal to all federal, state and local government web resources and services.